createdAt,value
2023-01-26T00:00:48.296Z,4.4
2023-01-26T00:01:48.276Z,5.800000000000001
2023-01-26T00:02:48.301Z,3.5
2023-01-26T00:03:48.346Z,4.3
2023-01-26T00:04:48.270Z,7.4
2023-01-26T00:05:48.301Z,5.7
2023-01-26T00:06:48.276Z,7.7
2023-01-26T00:07:48.274Z,4.4
2023-01-26T00:08:48.292Z,5.2
2023-01-26T00:09:48.281Z,8.6
2023-01-26T00:10:48.297Z,8.4
2023-01-26T00:11:48.294Z,8.4
2023-01-26T00:12:48.296Z,3
2023-01-26T00:13:48.287Z,3.7
2023-01-26T00:14:48.286Z,4.4
2023-01-26T00:15:48.333Z,8.5
2023-01-26T00:16:48.295Z,5.800000000000001
2023-01-26T00:17:48.285Z,7.800000000000001
2023-01-26T00:18:48.289Z,10.200000000000001
2023-01-26T00:19:48.282Z,5.5
2023-01-26T00:20:48.291Z,6.5
2023-01-26T00:21:48.295Z,7.5
2023-01-26T00:22:48.295Z,9.700000000000001
2023-01-26T00:23:48.346Z,10.8
2023-01-26T00:24:48.301Z,14.3
2023-01-26T00:25:48.299Z,13.200000000000001
2023-01-26T00:26:48.427Z,9.600000000000001
2023-01-26T00:27:48.296Z,12.4
2023-01-26T00:28:48.291Z,13.3
2023-01-26T00:29:48.297Z,7.1000000000000005
2023-01-26T00:30:48.355Z,5.1000000000000005
2023-01-26T00:31:48.315Z,4.9
2023-01-26T00:32:48.296Z,5.2
2023-01-26T00:33:48.294Z,6
2023-01-26T00:34:48.295Z,9
2023-01-26T00:35:48.301Z,9.5
2023-01-26T00:36:48.310Z,9.4
2023-01-26T00:37:48.323Z,9.700000000000001
2023-01-26T00:38:48.359Z,8.4
2023-01-26T00:39:48.302Z,3.7
2023-01-26T00:40:48.306Z,4.9
2023-01-26T00:41:48.317Z,7
2023-01-26T00:42:48.329Z,8.6
2023-01-26T00:43:48.304Z,5.6000000000000005
2023-01-26T00:44:48.308Z,5.4
2023-01-26T00:45:48.313Z,5.4
2023-01-26T00:46:48.311Z,5.4
2023-01-26T00:47:48.305Z,2.2
2023-01-26T00:48:48.320Z,3.8000000000000003
2023-01-26T00:49:48.321Z,4.7
2023-01-26T00:50:48.318Z,4.5
2023-01-26T00:51:48.316Z,3.7
2023-01-26T00:52:48.326Z,3.9000000000000004
2023-01-26T00:53:48.308Z,7.800000000000001
2023-01-26T00:54:48.313Z,4.4
2023-01-26T00:55:48.337Z,4.4
2023-01-26T00:56:48.318Z,2.8000000000000003
2023-01-26T00:57:48.312Z,2.7
2023-01-26T00:58:48.360Z,3.3000000000000003
2023-01-26T00:59:48.315Z,4.9
2023-01-26T01:00:48.368Z,5.1000000000000005
2023-01-26T01:01:48.319Z,3.7
2023-01-26T01:02:48.316Z,5.4
2023-01-26T01:03:48.350Z,9
2023-01-26T01:04:48.317Z,5.4
2023-01-26T01:05:48.322Z,3.3000000000000003
2023-01-26T01:06:48.334Z,3.9000000000000004
2023-01-26T01:07:48.330Z,11.200000000000001
2023-01-26T01:08:48.334Z,8.9
2023-01-26T01:09:48.333Z,5.800000000000001
2023-01-26T01:10:48.331Z,9.8
2023-01-26T01:11:48.341Z,7.6000000000000005
2023-01-26T01:12:48.326Z,5.4
2023-01-26T01:13:48.339Z,0
2023-01-26T01:14:48.349Z,5.2
2023-01-26T01:15:48.355Z,4.4
2023-01-26T01:16:48.316Z,0
2023-01-26T01:17:48.326Z,0
2023-01-26T01:18:48.348Z,0
2023-01-26T01:19:48.329Z,3.3000000000000003
2023-01-26T01:20:48.351Z,2.4000000000000004
2023-01-26T01:21:48.344Z,3
2023-01-26T01:22:48.340Z,2.1
2023-01-26T01:23:48.362Z,0
2023-01-26T01:24:48.335Z,0
2023-01-26T01:25:48.338Z,0
2023-01-26T01:26:48.333Z,0
2023-01-26T01:27:48.329Z,0
2023-01-26T01:28:48.332Z,0
2023-01-26T01:29:48.358Z,0
2023-01-26T01:30:48.455Z,0
2023-01-26T01:31:48.357Z,0
2023-01-26T01:32:48.341Z,0
2023-01-26T01:33:48.368Z,0
2023-01-26T01:34:48.332Z,0
2023-01-26T01:35:48.333Z,0
2023-01-26T01:36:48.340Z,2.9000000000000004
2023-01-26T01:37:48.367Z,0
2023-01-26T01:38:48.340Z,6.2
2023-01-26T01:39:48.350Z,3.3000000000000003
2023-01-26T01:40:48.352Z,4.2
2023-01-26T01:41:48.363Z,0
2023-01-26T01:42:48.370Z,2.8000000000000003
2023-01-26T01:43:48.342Z,3.5
2023-01-26T01:44:48.358Z,3.1
2023-01-26T01:45:48.355Z,0
2023-01-26T01:46:48.473Z,3.3000000000000003
2023-01-26T01:47:48.342Z,3
2023-01-26T01:48:48.359Z,6
2023-01-26T01:49:48.356Z,5.6000000000000005
2023-01-26T01:50:48.346Z,5.4
2023-01-26T01:51:48.349Z,4.4
2023-01-26T01:52:48.368Z,3.6
2023-01-26T01:53:48.352Z,6.5
2023-01-26T01:54:48.364Z,4.7
2023-01-26T01:55:48.356Z,3.8000000000000003
2023-01-26T01:56:48.366Z,4.7
2023-01-26T01:57:48.366Z,5
2023-01-26T01:58:48.361Z,2.4000000000000004
2023-01-26T01:59:48.368Z,1.4000000000000001
2023-01-26T02:00:48.473Z,0
2023-01-26T02:01:48.405Z,0
2023-01-26T02:02:48.396Z,0
2023-01-26T02:03:48.367Z,6.9
2023-01-26T02:04:48.360Z,3.3000000000000003
2023-01-26T02:05:48.365Z,3.4000000000000004
2023-01-26T02:06:48.382Z,4.4
2023-01-26T02:07:48.360Z,4.5
2023-01-26T02:08:48.357Z,6.300000000000001
2023-01-26T02:09:48.365Z,2.9000000000000004
2023-01-26T02:10:48.369Z,4.4
2023-01-26T02:11:48.369Z,2.1
2023-01-26T02:12:48.356Z,5.1000000000000005
2023-01-26T02:13:48.363Z,4.800000000000001
2023-01-26T02:14:48.370Z,5.7
2023-01-26T02:15:48.377Z,0
2023-01-26T02:16:48.378Z,0
2023-01-26T02:17:48.379Z,6.2
2023-01-26T02:18:48.391Z,6.1000000000000005
2023-01-26T02:19:48.369Z,6.9
2023-01-26T02:20:48.371Z,2.8000000000000003
2023-01-26T02:21:48.359Z,0
2023-01-26T02:22:48.367Z,0
2023-01-26T02:23:48.440Z,0
2023-01-26T02:24:48.375Z,0
2023-01-26T02:25:48.375Z,0
2023-01-26T02:26:48.368Z,0
2023-01-26T02:27:48.382Z,0
2023-01-26T02:28:48.391Z,0
2023-01-26T02:29:48.374Z,0
2023-01-26T02:30:48.446Z,0
2023-01-26T02:31:48.451Z,0
2023-01-26T02:32:48.378Z,0
2023-01-26T02:33:48.382Z,0
2023-01-26T02:34:48.459Z,0
2023-01-26T02:35:48.358Z,0
2023-01-26T02:36:48.371Z,0
2023-01-26T02:37:48.373Z,7.9
2023-01-26T02:38:48.370Z,3.7
2023-01-26T02:39:48.369Z,2.6
2023-01-26T02:40:48.380Z,2
2023-01-26T02:41:48.383Z,2.4000000000000004
2023-01-26T02:42:48.384Z,3.8000000000000003
2023-01-26T02:43:48.371Z,0
2023-01-26T02:44:48.396Z,4.7
2023-01-26T02:45:48.389Z,6.4
2023-01-26T02:46:48.380Z,4.2
2023-01-26T02:47:48.382Z,3
2023-01-26T02:48:48.378Z,0
2023-01-26T02:49:48.386Z,0
2023-01-26T02:50:48.432Z,0
2023-01-26T02:51:48.393Z,0
2023-01-26T02:52:48.406Z,0
2023-01-26T02:53:48.390Z,4.4
2023-01-26T02:54:48.389Z,5
2023-01-26T02:55:48.396Z,4.3
2023-01-26T02:56:48.388Z,3.2
2023-01-26T02:57:48.403Z,3.3000000000000003
2023-01-26T02:58:48.400Z,8.700000000000001
2023-01-26T02:59:48.403Z,6.6000000000000005
2023-01-26T03:00:48.468Z,5.7
2023-01-26T03:01:48.439Z,6
2023-01-26T03:02:48.398Z,4.800000000000001
2023-01-26T03:03:48.412Z,6.9
2023-01-26T03:04:48.406Z,5.2
2023-01-26T03:05:48.397Z,5.4
2023-01-26T03:06:48.423Z,3.5
2023-01-26T03:07:48.400Z,3.6
2023-01-26T03:08:48.399Z,3.4000000000000004
2023-01-26T03:09:48.398Z,4.3
2023-01-26T03:10:48.402Z,3.3000000000000003
2023-01-26T03:11:48.409Z,1.3
2023-01-26T03:12:48.411Z,0
2023-01-26T03:13:48.421Z,0
2023-01-26T03:14:48.425Z,0
2023-01-26T03:15:48.486Z,0
2023-01-26T03:16:48.418Z,0
2023-01-26T03:17:48.409Z,0
2023-01-26T03:18:48.419Z,5.7
2023-01-26T03:19:48.426Z,6.300000000000001
2023-01-26T03:20:48.434Z,2.9000000000000004
2023-01-26T03:21:48.415Z,2.9000000000000004
2023-01-26T03:22:48.441Z,0
2023-01-26T03:23:48.433Z,0
2023-01-26T03:24:48.425Z,8.3
2023-01-26T03:25:48.409Z,2.4000000000000004
2023-01-26T03:26:48.412Z,2.1
2023-01-26T03:27:48.424Z,0
2023-01-26T03:28:48.427Z,0
2023-01-26T03:29:48.423Z,4
2023-01-26T03:30:48.459Z,6
2023-01-26T03:31:48.429Z,1.2000000000000002
2023-01-26T03:32:48.425Z,1.4000000000000001
2023-01-26T03:33:48.421Z,4.4
2023-01-26T03:34:48.452Z,6.6000000000000005
2023-01-26T03:35:48.429Z,6.7
2023-01-26T03:36:48.421Z,3.7
2023-01-26T03:37:48.424Z,5.4
2023-01-26T03:38:48.448Z,8.200000000000001
2023-01-26T03:39:48.423Z,1.4000000000000001
2023-01-26T03:40:48.438Z,0
2023-01-26T03:41:48.437Z,0
2023-01-26T03:42:48.446Z,0
2023-01-26T03:43:48.447Z,0
2023-01-26T03:44:48.456Z,0
2023-01-26T03:45:48.437Z,0
2023-01-26T03:46:48.479Z,0
2023-01-26T03:47:48.450Z,0
2023-01-26T03:48:48.448Z,0
2023-01-26T03:49:48.454Z,0
2023-01-26T03:50:48.449Z,0
2023-01-26T03:51:48.442Z,0
2023-01-26T03:52:48.450Z,0
2023-01-26T03:53:48.447Z,0
2023-01-26T03:54:48.470Z,0
2023-01-26T03:55:48.455Z,0
2023-01-26T03:56:48.464Z,0
2023-01-26T03:57:48.450Z,0
2023-01-26T03:58:48.473Z,0
2023-01-26T03:59:48.465Z,0
2023-01-26T04:00:48.482Z,2.1
2023-01-26T04:01:48.474Z,0
2023-01-26T04:02:48.491Z,0
2023-01-26T04:03:48.499Z,0
2023-01-26T04:04:48.477Z,5.9
2023-01-26T04:05:48.469Z,6.4
2023-01-26T04:06:48.472Z,6.300000000000001
2023-01-26T04:07:48.477Z,3.6
2023-01-26T04:08:48.478Z,3.6
2023-01-26T04:09:48.487Z,2.7
2023-01-26T04:10:48.505Z,4.9
2023-01-26T04:11:48.476Z,3.8000000000000003
2023-01-26T04:12:48.798Z,1.8
2023-01-26T04:13:48.472Z,6.6000000000000005
2023-01-26T04:14:49.607Z,4
2023-01-26T04:15:48.482Z,3.6
2023-01-26T04:16:48.477Z,2
2023-01-26T04:17:48.467Z,0
2023-01-26T04:18:48.474Z,0
2023-01-26T04:19:48.494Z,0
2023-01-26T04:20:48.499Z,0
2023-01-26T04:21:48.485Z,0
2023-01-26T04:22:48.498Z,4.800000000000001
2023-01-26T04:23:48.532Z,0
2023-01-26T04:24:48.487Z,0
2023-01-26T04:25:48.509Z,0
2023-01-26T04:26:48.517Z,0
2023-01-26T04:27:48.525Z,0
2023-01-26T04:28:48.496Z,4.7
2023-01-26T04:29:48.498Z,4.3
2023-01-26T04:30:48.527Z,3.5
2023-01-26T04:31:48.548Z,3.9000000000000004
2023-01-26T04:32:48.501Z,7.1000000000000005
2023-01-26T04:33:48.503Z,5.9
2023-01-26T04:34:48.500Z,5.300000000000001
2023-01-26T04:35:48.509Z,3.9000000000000004
2023-01-26T04:36:48.512Z,0
2023-01-26T04:37:48.526Z,0
2023-01-26T04:38:48.516Z,0
2023-01-26T04:39:48.503Z,0
2023-01-26T04:40:48.526Z,0
2023-01-26T04:41:48.514Z,0
2023-01-26T04:42:48.543Z,0
2023-01-26T04:43:48.513Z,0
2023-01-26T04:44:48.509Z,0
2023-01-26T04:45:48.540Z,4
2023-01-26T04:46:48.510Z,3.7
2023-01-26T04:47:48.536Z,0
2023-01-26T04:48:48.521Z,0.8
2023-01-26T04:49:48.543Z,0
2023-01-26T04:50:48.524Z,0
2023-01-26T04:51:48.517Z,0
2023-01-26T04:52:48.521Z,0
2023-01-26T04:53:48.523Z,0
2023-01-26T04:54:48.533Z,0
2023-01-26T04:55:48.526Z,0
2023-01-26T04:56:48.537Z,3
2023-01-26T04:57:48.521Z,1.4000000000000001
2023-01-26T04:58:48.561Z,0
2023-01-26T04:59:48.527Z,5.1000000000000005
2023-01-26T05:00:48.576Z,2.4000000000000004
2023-01-26T05:01:48.541Z,0
2023-01-26T05:02:48.537Z,0
2023-01-26T05:03:48.624Z,0
2023-01-26T05:04:48.552Z,0
2023-01-26T05:05:48.525Z,0
2023-01-26T05:06:48.536Z,0
2023-01-26T05:07:48.547Z,0
2023-01-26T05:08:48.539Z,0
2023-01-26T05:09:48.525Z,0
2023-01-26T05:10:48.549Z,0
2023-01-26T05:11:48.537Z,0
2023-01-26T05:12:48.544Z,0
2023-01-26T05:13:48.552Z,5.2
2023-01-26T05:14:48.608Z,3
2023-01-26T05:15:48.537Z,3
2023-01-26T05:16:48.588Z,4.1000000000000005
2023-01-26T05:17:48.537Z,4.800000000000001
2023-01-26T05:18:48.551Z,3.3000000000000003
2023-01-26T05:19:48.561Z,2.7
2023-01-26T05:20:48.557Z,5.2
2023-01-26T05:21:48.542Z,3.1
2023-01-26T05:22:48.556Z,0
2023-01-26T05:23:48.598Z,2.8000000000000003
2023-01-26T05:24:48.557Z,2.4000000000000004
2023-01-26T05:25:48.549Z,0
2023-01-26T05:26:48.574Z,0
2023-01-26T05:27:48.556Z,0
2023-01-26T05:28:48.560Z,3.1
2023-01-26T05:29:48.583Z,5.800000000000001
2023-01-26T05:30:48.639Z,2.2
2023-01-26T05:31:48.631Z,0
2023-01-26T05:32:48.558Z,0
2023-01-26T05:33:48.560Z,0
2023-01-26T05:34:48.566Z,0
2023-01-26T05:35:48.572Z,0
2023-01-26T05:36:48.554Z,0
2023-01-26T05:37:48.574Z,0
2023-01-26T05:38:48.576Z,0
2023-01-26T05:39:48.565Z,0
2023-01-26T05:40:48.574Z,0
2023-01-26T05:41:48.578Z,0
2023-01-26T05:42:48.565Z,0
2023-01-26T05:43:48.574Z,0
2023-01-26T05:44:48.580Z,0
2023-01-26T05:45:48.634Z,0
2023-01-26T05:46:48.609Z,5.5
2023-01-26T05:47:48.590Z,4.5
2023-01-26T05:48:48.590Z,6.7
2023-01-26T05:49:48.572Z,2.7
2023-01-26T05:50:48.597Z,4.9
2023-01-26T05:51:48.592Z,0.6000000000000001
2023-01-26T05:52:48.583Z,0
2023-01-26T05:53:48.587Z,0
2023-01-26T05:54:48.585Z,0
2023-01-26T05:55:48.596Z,0
2023-01-26T05:56:48.581Z,0
2023-01-26T05:57:48.596Z,0
2023-01-26T05:58:48.592Z,8.5
2023-01-26T05:59:48.595Z,3.6
2023-01-26T06:00:48.600Z,2.9000000000000004
2023-01-26T06:01:48.599Z,3.3000000000000003
2023-01-26T06:02:48.800Z,0
2023-01-26T06:03:48.587Z,4.1000000000000005
2023-01-26T06:04:48.624Z,9.600000000000001
2023-01-26T06:05:48.594Z,6.5
2023-01-26T06:06:48.601Z,4.2
2023-01-26T06:07:48.595Z,4.5
2023-01-26T06:08:48.587Z,0
2023-01-26T06:09:48.586Z,0
2023-01-26T06:10:48.600Z,0
2023-01-26T06:11:48.603Z,1.3
2023-01-26T06:12:48.602Z,2.9000000000000004
2023-01-26T06:13:48.616Z,0
2023-01-26T06:14:48.621Z,3.5
2023-01-26T06:15:48.595Z,6.2
2023-01-26T06:16:48.869Z,7
2023-01-26T06:17:48.618Z,4.7
2023-01-26T06:18:48.650Z,0
2023-01-26T06:19:48.605Z,0
2023-01-26T06:20:48.620Z,0
2023-01-26T06:21:48.604Z,0
2023-01-26T06:22:48.603Z,0
2023-01-26T06:23:48.671Z,0
2023-01-26T06:24:48.603Z,0
2023-01-26T06:25:48.612Z,0
2023-01-26T06:26:48.623Z,0
2023-01-26T06:27:48.628Z,0
2023-01-26T06:28:48.630Z,0
2023-01-26T06:29:48.632Z,0
2023-01-26T06:30:48.722Z,0
2023-01-26T06:31:48.649Z,0
2023-01-26T06:32:48.637Z,0
2023-01-26T06:33:48.616Z,5.5
2023-01-26T06:34:48.645Z,3.9000000000000004
2023-01-26T06:35:48.612Z,5.4
2023-01-26T06:36:48.610Z,7.7
2023-01-26T06:37:48.625Z,9.4
2023-01-26T06:38:48.630Z,4.1000000000000005
2023-01-26T06:39:48.618Z,0
2023-01-26T06:40:48.626Z,0
2023-01-26T06:41:48.613Z,2.8000000000000003
2023-01-26T06:42:48.619Z,3.9000000000000004
2023-01-26T06:43:48.608Z,3.3000000000000003
2023-01-26T06:44:48.619Z,4.4
2023-01-26T06:45:48.665Z,0
2023-01-26T06:46:48.623Z,0
2023-01-26T06:47:48.645Z,0
2023-01-26T06:48:48.621Z,0
2023-01-26T06:49:48.629Z,2.7
2023-01-26T06:50:48.702Z,1.4000000000000001
2023-01-26T06:51:48.619Z,0
2023-01-26T06:52:48.620Z,0
2023-01-26T06:53:48.622Z,0
2023-01-26T06:54:48.624Z,0
2023-01-26T06:55:48.616Z,0
2023-01-26T06:56:48.604Z,0
2023-01-26T06:57:48.629Z,0
2023-01-26T06:58:48.630Z,0
2023-01-26T06:59:48.629Z,0
2023-01-26T07:00:48.628Z,0
2023-01-26T07:01:48.615Z,0
2023-01-26T07:02:48.631Z,7.1000000000000005
2023-01-26T07:03:48.623Z,5.300000000000001
2023-01-26T07:04:48.635Z,6.5
2023-01-26T07:05:48.621Z,6.5
2023-01-26T07:06:48.660Z,3.1
2023-01-26T07:07:48.622Z,8.1
2023-01-26T07:08:48.622Z,5.1000000000000005
2023-01-26T07:09:48.639Z,5.4
2023-01-26T07:10:48.634Z,4.5
2023-01-26T07:11:48.612Z,2.7
2023-01-26T07:12:48.633Z,0
2023-01-26T07:13:48.625Z,0
2023-01-26T07:14:48.627Z,0
2023-01-26T07:15:48.638Z,0
2023-01-26T07:16:48.707Z,0
2023-01-26T07:17:48.644Z,0
2023-01-26T07:18:48.625Z,0
2023-01-26T07:19:48.628Z,5.5
2023-01-26T07:20:48.626Z,7.800000000000001
2023-01-26T07:21:48.648Z,7.1000000000000005
2023-01-26T07:22:48.649Z,8.700000000000001
2023-01-26T07:23:48.691Z,2
2023-01-26T07:24:48.636Z,0
2023-01-26T07:25:48.639Z,0
2023-01-26T07:26:48.633Z,0
2023-01-26T07:27:48.648Z,1.2000000000000002
2023-01-26T07:28:48.637Z,7.300000000000001
2023-01-26T07:29:48.659Z,5.300000000000001
2023-01-26T07:30:48.716Z,0
2023-01-26T07:31:48.691Z,0
2023-01-26T07:32:48.637Z,0
2023-01-26T07:33:48.643Z,0
2023-01-26T07:34:48.645Z,0
2023-01-26T07:35:48.631Z,1.8
2023-01-26T07:36:48.658Z,0
2023-01-26T07:37:48.659Z,0
2023-01-26T07:38:48.685Z,0
2023-01-26T07:39:48.646Z,0
2023-01-26T07:40:48.634Z,0
2023-01-26T07:41:48.656Z,3.9000000000000004
2023-01-26T07:42:48.655Z,2.1
2023-01-26T07:43:48.660Z,5
2023-01-26T07:44:48.654Z,3.1
2023-01-26T07:45:48.651Z,2.5
2023-01-26T07:46:48.684Z,0
2023-01-26T07:47:48.660Z,0
2023-01-26T07:48:48.664Z,0
2023-01-26T07:49:48.647Z,0
2023-01-26T07:50:48.676Z,0
2023-01-26T07:51:48.678Z,0
2023-01-26T07:52:48.674Z,0
2023-01-26T07:53:48.671Z,0
2023-01-26T07:54:48.680Z,0
2023-01-26T07:55:48.657Z,0
2023-01-26T07:56:48.679Z,0
2023-01-26T07:57:48.680Z,0
2023-01-26T07:58:48.659Z,0
2023-01-26T07:59:48.665Z,2.5
2023-01-26T08:00:48.701Z,0
2023-01-26T08:01:48.747Z,0
2023-01-26T08:02:48.728Z,0
2023-01-26T08:03:48.656Z,0
2023-01-26T08:04:48.665Z,0
2023-01-26T08:05:48.662Z,0
2023-01-26T08:06:48.657Z,0
2023-01-26T08:07:48.671Z,0
2023-01-26T08:08:48.665Z,0
2023-01-26T08:09:48.677Z,0
2023-01-26T08:10:48.689Z,0
2023-01-26T08:11:48.684Z,0
2023-01-26T08:12:48.662Z,0
2023-01-26T08:13:48.676Z,0
2023-01-26T08:14:48.685Z,0
2023-01-26T08:15:48.670Z,0
2023-01-26T08:16:48.740Z,0
2023-01-26T08:17:48.687Z,0
2023-01-26T08:18:48.687Z,0
2023-01-26T08:19:48.684Z,0
2023-01-26T08:20:48.683Z,0
2023-01-26T08:21:48.677Z,0
2023-01-26T08:22:48.691Z,0
2023-01-26T08:23:48.739Z,0
2023-01-26T08:24:48.672Z,0
2023-01-26T08:25:48.755Z,0
2023-01-26T08:26:48.693Z,0
2023-01-26T08:27:48.675Z,0
2023-01-26T08:28:48.678Z,0
2023-01-26T08:29:48.684Z,0
2023-01-26T08:30:48.735Z,0
2023-01-26T08:31:48.743Z,0
2023-01-26T08:32:48.682Z,0
2023-01-26T08:33:48.695Z,0
2023-01-26T08:34:48.678Z,0
2023-01-26T08:35:48.683Z,0
2023-01-26T08:36:48.696Z,0
2023-01-26T08:37:48.734Z,0
2023-01-26T08:38:48.697Z,0
2023-01-26T08:39:48.686Z,0
2023-01-26T08:40:48.690Z,0
2023-01-26T08:41:48.685Z,0
2023-01-26T08:42:48.729Z,0
2023-01-26T08:43:48.686Z,0
2023-01-26T08:44:48.692Z,0
2023-01-26T08:45:48.832Z,0
2023-01-26T08:46:48.688Z,0
2023-01-26T08:47:48.687Z,0
2023-01-26T08:48:48.704Z,0
2023-01-26T08:49:48.699Z,0
2023-01-26T08:50:48.694Z,0
2023-01-26T08:51:48.710Z,0
2023-01-26T08:52:48.704Z,0
2023-01-26T08:53:48.703Z,0
2023-01-26T08:54:48.700Z,0
2023-01-26T08:55:48.702Z,0
2023-01-26T08:56:48.712Z,0
2023-01-26T08:57:48.704Z,0
2023-01-26T08:58:48.728Z,0
2023-01-26T08:59:48.689Z,0
2023-01-26T09:00:48.734Z,0
2023-01-26T09:01:50.259Z,0
2023-01-26T09:02:48.826Z,0
2023-01-26T09:03:48.715Z,7.6000000000000005
2023-01-26T09:04:48.724Z,5.300000000000001
2023-01-26T09:05:48.694Z,2.9000000000000004
2023-01-26T09:06:48.787Z,2.3000000000000003
2023-01-26T09:07:48.706Z,0
2023-01-26T09:08:48.721Z,0
2023-01-26T09:09:48.705Z,0
2023-01-26T09:10:48.703Z,0
2023-01-26T09:11:48.698Z,0
2023-01-26T09:12:48.694Z,6.4
2023-01-26T09:13:48.705Z,2.8000000000000003
2023-01-26T09:14:48.778Z,0
2023-01-26T09:15:48.697Z,0
2023-01-26T09:16:48.782Z,0
2023-01-26T09:17:48.702Z,0
2023-01-26T09:18:48.712Z,5.5
2023-01-26T09:19:48.708Z,5.1000000000000005
2023-01-26T09:20:48.715Z,4.4
2023-01-26T09:21:48.709Z,2.6
2023-01-26T09:22:48.710Z,2.3000000000000003
2023-01-26T09:23:48.788Z,3.1
2023-01-26T09:24:48.706Z,4.4
2023-01-26T09:25:48.723Z,3.4000000000000004
2023-01-26T09:26:48.709Z,4.4
2023-01-26T09:27:48.720Z,1.2000000000000002
2023-01-26T09:28:48.725Z,5.1000000000000005
2023-01-26T09:29:48.773Z,6.800000000000001
2023-01-26T09:30:49.874Z,7.5
2023-01-26T09:31:48.828Z,7.2
2023-01-26T09:32:48.736Z,5
2023-01-26T09:33:48.722Z,4.6000000000000005
2023-01-26T09:34:48.732Z,5.5
2023-01-26T09:35:48.721Z,4.7
2023-01-26T09:36:48.715Z,6.800000000000001
2023-01-26T09:37:48.715Z,3.4000000000000004
2023-01-26T09:38:48.719Z,0
2023-01-26T09:39:48.712Z,0
2023-01-26T09:40:48.735Z,0
2023-01-26T09:41:48.736Z,0
2023-01-26T09:42:48.719Z,0
2023-01-26T09:43:48.721Z,0
2023-01-26T09:44:48.724Z,0
2023-01-26T09:45:48.732Z,0
2023-01-26T09:46:48.777Z,0
2023-01-26T09:47:48.733Z,0
2023-01-26T09:48:48.723Z,0
2023-01-26T09:49:48.756Z,5.2
2023-01-26T09:50:48.746Z,3.1
2023-01-26T09:51:48.735Z,0
2023-01-26T09:52:48.729Z,0
2023-01-26T09:53:48.750Z,0
2023-01-26T09:54:48.743Z,0
2023-01-26T09:55:48.735Z,0
2023-01-26T09:56:48.738Z,0
2023-01-26T09:57:48.746Z,5.800000000000001
2023-01-26T09:58:48.751Z,2.2
2023-01-26T09:59:48.735Z,1.6
2023-01-26T10:00:48.741Z,0
2023-01-26T10:01:48.749Z,0
2023-01-26T10:02:48.846Z,0
2023-01-26T10:03:48.744Z,0
2023-01-26T10:04:48.751Z,6.5
2023-01-26T10:05:48.741Z,4.5
2023-01-26T10:06:48.742Z,2.5
2023-01-26T10:07:48.758Z,0
2023-01-26T10:08:48.747Z,0
2023-01-26T10:09:48.752Z,0
2023-01-26T10:10:48.778Z,1.6
2023-01-26T10:11:48.754Z,5.2
2023-01-26T10:12:48.752Z,2.1
2023-01-26T10:13:48.768Z,2.1
2023-01-26T10:14:48.749Z,0
2023-01-26T10:15:48.799Z,2.3000000000000003
2023-01-26T10:16:48.754Z,0
2023-01-26T10:17:48.754Z,0
2023-01-26T10:18:48.787Z,0
2023-01-26T10:19:48.744Z,0
2023-01-26T10:20:48.777Z,0
2023-01-26T10:21:48.753Z,0
2023-01-26T10:22:48.756Z,0
2023-01-26T10:23:48.851Z,0
2023-01-26T10:24:48.768Z,0
2023-01-26T10:25:48.764Z,0
2023-01-26T10:26:48.752Z,0
2023-01-26T10:27:48.761Z,0
2023-01-26T10:28:48.754Z,0
2023-01-26T10:29:48.782Z,0
2023-01-26T10:30:48.901Z,0
2023-01-26T10:31:48.798Z,0
2023-01-26T10:32:48.760Z,0
2023-01-26T10:33:48.789Z,0
2023-01-26T10:34:48.793Z,0
2023-01-26T10:35:48.764Z,0
2023-01-26T10:36:48.777Z,5.6000000000000005
2023-01-26T10:37:48.771Z,3.3000000000000003
2023-01-26T10:38:48.776Z,0
2023-01-26T10:39:48.765Z,0
2023-01-26T10:40:48.781Z,0
2023-01-26T10:41:48.826Z,3.2
2023-01-26T10:42:48.806Z,2.5
2023-01-26T10:43:48.790Z,4.3
2023-01-26T10:44:48.768Z,5.2
2023-01-26T10:45:48.761Z,5.5
2023-01-26T10:46:48.794Z,4.3
2023-01-26T10:47:48.784Z,1.5
2023-01-26T10:48:48.780Z,0.30000000000000004
2023-01-26T10:49:48.776Z,3.4000000000000004
2023-01-26T10:50:48.824Z,3.6
2023-01-26T10:51:48.777Z,0
2023-01-26T10:52:48.812Z,0
2023-01-26T10:53:48.784Z,0
2023-01-26T10:54:48.787Z,0
2023-01-26T10:55:48.791Z,0
2023-01-26T10:56:48.803Z,0
2023-01-26T10:57:48.802Z,0
2023-01-26T10:58:48.796Z,0
2023-01-26T10:59:48.785Z,0
2023-01-26T11:00:48.794Z,0
2023-01-26T11:01:48.822Z,0
2023-01-26T11:02:48.869Z,2.4000000000000004
2023-01-26T11:03:48.784Z,4.5
2023-01-26T11:04:48.812Z,5.1000000000000005
2023-01-26T11:05:48.797Z,3.6
2023-01-26T11:06:48.857Z,4.3
2023-01-26T11:07:48.798Z,0
2023-01-26T11:08:48.800Z,1.2000000000000002
2023-01-26T11:09:48.808Z,0
2023-01-26T11:10:48.814Z,1.4000000000000001
2023-01-26T11:11:48.799Z,3.7
2023-01-26T11:12:48.810Z,2.4000000000000004
2023-01-26T11:13:48.821Z,0
2023-01-26T11:14:48.804Z,2.9000000000000004
2023-01-26T11:15:48.810Z,1.6
2023-01-26T11:16:48.813Z,1.9000000000000001
2023-01-26T11:17:48.806Z,3.6
2023-01-26T11:18:48.803Z,4.6000000000000005
2023-01-26T11:19:48.823Z,2.7
2023-01-26T11:20:48.809Z,0
2023-01-26T11:21:48.810Z,0
2023-01-26T11:22:48.832Z,0
2023-01-26T11:23:48.881Z,0
2023-01-26T11:24:48.811Z,6.7
2023-01-26T11:25:48.810Z,6.300000000000001
2023-01-26T11:26:48.808Z,5.2
2023-01-26T11:27:48.817Z,5.800000000000001
2023-01-26T11:28:48.826Z,3.2
2023-01-26T11:29:48.815Z,4
2023-01-26T11:30:48.836Z,4.4
2023-01-26T11:31:48.882Z,3.9000000000000004
2023-01-26T11:32:48.823Z,3
2023-01-26T11:33:48.811Z,4.800000000000001
2023-01-26T11:34:48.813Z,1.9000000000000001
2023-01-26T11:35:48.804Z,4.3
2023-01-26T11:36:48.812Z,4.1000000000000005
2023-01-26T11:37:48.821Z,2.3000000000000003
2023-01-26T11:38:48.838Z,5.2
2023-01-26T11:39:48.810Z,6.9
2023-01-26T11:40:48.816Z,6.9
2023-01-26T11:41:48.809Z,3.2
2023-01-26T11:42:48.821Z,3.3000000000000003
2023-01-26T11:43:48.817Z,5.800000000000001
2023-01-26T11:44:48.826Z,8.700000000000001
2023-01-26T11:45:48.916Z,5.7
2023-01-26T11:46:48.815Z,2.4000000000000004
2023-01-26T11:47:48.814Z,0
2023-01-26T11:48:48.825Z,0
2023-01-26T11:49:48.836Z,0
2023-01-26T11:50:48.816Z,0
2023-01-26T11:51:48.841Z,7.300000000000001
2023-01-26T11:52:48.828Z,2.2
2023-01-26T11:53:48.829Z,1.2000000000000002
2023-01-26T11:54:48.871Z,0
2023-01-26T11:55:48.844Z,0
2023-01-26T11:56:48.826Z,0
2023-01-26T11:57:48.823Z,0
2023-01-26T11:58:48.829Z,0
2023-01-26T11:59:48.817Z,0
2023-01-26T12:00:48.826Z,0
2023-01-26T12:01:48.831Z,0
2023-01-26T12:02:48.833Z,0
2023-01-26T12:03:48.837Z,0
2023-01-26T12:04:48.827Z,0
2023-01-26T12:05:48.822Z,0
2023-01-26T12:06:48.835Z,0
2023-01-26T12:07:48.829Z,0
2023-01-26T12:08:48.835Z,0
2023-01-26T12:09:48.819Z,0
2023-01-26T12:10:48.916Z,0
2023-01-26T12:11:48.821Z,0
2023-01-26T12:12:48.838Z,0
2023-01-26T12:13:48.837Z,0
2023-01-26T12:14:48.843Z,0
2023-01-26T12:15:48.838Z,0
2023-01-26T12:16:48.897Z,3.3000000000000003
2023-01-26T12:17:48.819Z,2.7
2023-01-26T12:18:55.966Z,0
2023-01-26T12:19:48.865Z,0
2023-01-26T12:20:48.832Z,0
2023-01-26T12:21:48.862Z,0
2023-01-26T12:22:48.825Z,0
2023-01-26T12:23:48.899Z,0
2023-01-26T12:25:48.941Z,0
2023-01-26T12:26:48.855Z,0
2023-01-26T12:27:48.838Z,0
2023-01-26T12:28:48.839Z,0
2023-01-26T12:29:48.833Z,0
2023-01-26T12:30:48.944Z,0
2023-01-26T12:31:48.974Z,0
2023-01-26T12:32:48.840Z,0
2023-01-26T12:33:48.836Z,0
2023-01-26T12:34:48.840Z,0
2023-01-26T12:35:48.853Z,0
2023-01-26T12:36:48.838Z,0
2023-01-26T12:37:48.850Z,0
2023-01-26T12:38:48.849Z,0
2023-01-26T12:39:48.854Z,0
2023-01-26T12:40:48.856Z,0
2023-01-26T12:41:48.846Z,0
2023-01-26T12:42:48.880Z,0
2023-01-26T12:43:48.864Z,0
2023-01-26T12:44:48.847Z,0
2023-01-26T12:45:48.951Z,0
2023-01-26T12:46:48.857Z,0
2023-01-26T12:47:48.853Z,0
2023-01-26T12:48:48.854Z,0
2023-01-26T12:49:48.954Z,0
2023-01-26T12:50:48.868Z,0
2023-01-26T12:51:48.863Z,0
2023-01-26T12:52:48.869Z,0
2023-01-26T12:53:48.881Z,0
2023-01-26T12:54:48.849Z,0
2023-01-26T12:55:48.870Z,0
2023-01-26T12:56:48.859Z,0
2023-01-26T12:57:48.869Z,0
2023-01-26T12:58:48.884Z,0
2023-01-26T12:59:49.295Z,0
2023-01-26T13:00:48.873Z,0
2023-01-26T13:01:48.937Z,0
2023-01-26T13:02:48.928Z,0
2023-01-26T13:03:48.879Z,0
2023-01-26T13:04:49.372Z,0
2023-01-26T13:05:48.869Z,0
2023-01-26T13:06:48.872Z,0
2023-01-26T13:07:48.877Z,0
2023-01-26T13:08:48.886Z,0